Maidstone, Vermont
Current Conditions -  °F | °C
As of 10:35 AM on Friday 28 Nov 2014 (Local Time) from KCDA Reporting Station
Unknown Precip Unknown Precip  
Wind Chill: 16°   Ceiling: 3500
Heat Index: 24°   Visibility: 10mi
Dew Point: 15°   Wind: 7mph
Humidity: 69%   Direction: 250°WSW
Pressure: 30.04"   Gusts: NA
Location:  44.7348°N, 71.6296°W
Report Text: KCDA 281535Z AUTO 25006KT 10SM UP OVC035 M04/M09 A3004 RMK AO2 T10451095
Loading
Personal Weather Stations






























Interactive Weather Map New forecast layout! Learn more

10-Day Weather Forecast

Advertisements
Track Severe Weather on mobile